createdAt,value
2017-05-30T00:00:17.200Z,99.90
2017-05-30T00:02:45.552Z,99.90
2017-05-30T00:05:14.040Z,99.90
2017-05-30T00:07:42.397Z,99.90
2017-05-30T00:18:51.275Z,99.90
2017-05-30T00:21:19.674Z,99.90
2017-05-30T00:23:47.265Z,99.90
2017-05-30T00:26:15.660Z,99.90
2017-05-30T00:28:44.017Z,99.90
2017-05-30T00:31:12.389Z,99.90
2017-05-30T00:33:40.131Z,99.90
2017-05-30T00:36:08.480Z,99.90
2017-05-30T00:38:36.849Z,99.90
2017-05-30T00:41:05.316Z,99.90
2017-05-30T00:43:33.661Z,99.90
2017-05-30T00:46:02.012Z,99.90
2017-05-30T00:48:30.463Z,99.90
2017-05-30T00:50:58.807Z,99.90
2017-05-30T00:53:27.157Z,99.90
2017-05-30T00:55:55.738Z,99.90
2017-05-30T00:58:24.084Z,99.90
2017-05-30T01:00:52.438Z,99.90
2017-05-30T01:03:20.849Z,99.90
2017-05-30T01:05:49.190Z,99.90
2017-05-30T01:08:17.566Z,99.90
2017-05-30T01:10:45.977Z,99.90
2017-05-30T01:13:14.320Z,99.90
2017-05-30T01:15:42.675Z,99.90
2017-05-30T01:18:11.070Z,99.90
2017-05-30T01:20:39.410Z,99.90
2017-05-30T01:23:07.784Z,99.90
2017-05-30T01:25:36.303Z,99.90
2017-05-30T01:28:04.652Z,99.90
2017-05-30T01:30:32.995Z,99.90
2017-05-30T01:33:01.369Z,99.90
2017-05-30T01:35:29.711Z,99.90
2017-05-30T01:37:58.058Z,99.90
2017-05-30T01:40:26.541Z,99.90
2017-05-30T01:42:54.902Z,99.90
2017-05-30T01:45:23.261Z,99.90
2017-05-30T01:47:51.641Z,99.90
2017-05-30T01:50:19.992Z,99.90
2017-05-30T01:52:48.327Z,99.90
2017-05-30T01:55:16.863Z,99.90
2017-05-30T01:57:45.235Z,99.90
2017-05-30T02:00:13.573Z,99.90
2017-05-30T02:02:41.974Z,99.90
2017-05-30T02:05:10.340Z,99.90
2017-05-30T02:07:38.693Z,99.90
2017-05-30T02:10:07.217Z,99.90
2017-05-30T02:12:35.569Z,99.90
2017-05-30T02:15:03.152Z,99.90
2017-05-30T02:17:31.548Z,99.90
2017-05-30T02:19:59.122Z,99.90
2017-05-30T02:22:26.708Z,99.90
2017-05-30T02:24:55.287Z,99.90
2017-05-30T02:27:23.633Z,99.90
2017-05-30T02:29:51.977Z,99.90
2017-05-30T02:32:20.494Z,99.90
2017-05-30T02:34:48.834Z,99.90
2017-05-30T02:37:17.177Z,99.90
2017-05-30T02:39:45.684Z,99.90
2017-05-30T02:42:14.028Z,99.90
2017-05-30T02:44:42.388Z,99.90
2017-05-30T02:47:11.085Z,99.90
2017-05-30T02:49:39.423Z,99.90
2017-05-30T02:52:07.004Z,99.90
2017-05-30T02:54:35.371Z,99.90
2017-05-30T02:57:03.708Z,99.90
2017-05-30T02:59:32.665Z,99.90
2017-05-30T03:02:02.016Z,99.90
2017-05-30T03:04:30.364Z,99.90
2017-05-30T03:06:58.709Z,99.90
2017-05-30T03:09:27.109Z,99.90
2017-05-30T03:11:55.449Z,99.90
2017-05-30T03:14:23.817Z,99.90
2017-05-30T03:16:52.225Z,99.90
2017-05-30T03:19:20.588Z,99.90
2017-05-30T03:21:48.936Z,99.90
2017-05-30T03:24:17.484Z,99.90
2017-05-30T03:26:45.832Z,99.90
2017-05-30T03:29:14.173Z,99.90
2017-05-30T03:31:41.937Z,99.90
2017-05-30T03:34:10.296Z,99.90
2017-05-30T03:36:38.658Z,99.90
2017-05-30T03:39:07.169Z,99.90
2017-05-30T03:41:35.511Z,99.90
2017-05-30T03:44:03.863Z,99.90
2017-05-30T03:46:32.599Z,99.90
2017-05-30T03:49:00.951Z,99.90
2017-05-30T03:51:29.303Z,99.90
2017-05-30T03:53:57.852Z,99.90
2017-05-30T03:56:26.184Z,99.90
2017-05-30T03:58:54.525Z,99.90
2017-05-30T04:01:22.917Z,99.90
2017-05-30T04:03:51.258Z,99.90
2017-05-30T04:06:19.608Z,99.90
2017-05-30T04:08:48.012Z,99.90
2017-05-30T04:11:15.588Z,99.90
2017-05-30T04:13:43.926Z,99.90
2017-05-30T04:16:12.389Z,99.90
2017-05-30T04:18:40.723Z,99.90
2017-05-30T04:21:09.077Z,99.90
2017-05-30T04:23:37.599Z,99.90
2017-05-30T04:26:05.948Z,99.90
2017-05-30T04:28:41.960Z,99.90
2017-05-30T04:31:10.312Z,99.90
2017-05-30T04:33:38.681Z,99.90
2017-05-30T04:36:07.052Z,99.90
2017-05-30T04:38:35.400Z,99.90
2017-05-30T04:41:03.905Z,99.90
2017-05-30T04:43:32.265Z,99.90
2017-05-30T04:45:59.870Z,99.90
2017-05-30T04:48:28.394Z,99.90
2017-05-30T04:50:56.750Z,99.90
2017-05-30T04:53:25.490Z,99.90
2017-05-30T04:55:53.896Z,99.90
2017-05-30T04:58:22.232Z,99.90
2017-05-30T05:00:50.568Z,99.90
2017-05-30T05:03:19.241Z,99.90
2017-05-30T05:05:47.597Z,99.90
2017-05-30T05:08:15.940Z,99.90
2017-05-30T05:10:44.705Z,99.90
2017-05-30T05:13:12.268Z,99.90
2017-05-30T05:15:39.836Z,99.90
2017-05-30T05:18:08.316Z,99.90
2017-05-30T05:20:35.878Z,99.90
2017-05-30T05:23:04.249Z,99.90
2017-05-30T05:25:31.948Z,99.90
2017-05-30T05:28:00.288Z,99.90
2017-05-30T05:30:28.619Z,99.90
2017-05-30T05:32:57.084Z,99.90
2017-05-30T05:35:25.423Z,99.90
2017-05-30T05:37:53.765Z,99.90
2017-05-30T05:40:22.341Z,99.90
2017-05-30T05:42:50.669Z,99.90
2017-05-30T05:45:19.003Z,99.90
2017-05-30T05:47:47.615Z,99.90
2017-05-30T05:50:15.945Z,99.90
2017-05-30T05:52:44.273Z,99.90
2017-05-30T05:55:12.768Z,99.90
2017-05-30T05:57:41.099Z,99.90
2017-05-30T06:00:09.437Z,99.90
2017-05-30T06:02:37.817Z,99.90
2017-05-30T06:05:06.147Z,99.90
2017-05-30T06:07:34.471Z,99.90
2017-05-30T06:10:02.974Z,99.90
2017-05-30T06:12:31.319Z,99.90
2017-05-30T06:14:59.669Z,99.90
2017-05-30T06:17:28.360Z,99.90
2017-05-30T06:19:56.708Z,99.90
2017-05-30T06:22:24.277Z,99.90
2017-05-30T06:24:52.749Z,99.90
2017-05-30T06:27:21.083Z,99.90
2017-05-30T06:29:49.428Z,99.90
2017-05-30T06:32:17.917Z,99.90
2017-05-30T06:34:46.249Z,99.90
2017-05-30T06:37:14.591Z,99.90
2017-05-30T06:39:43.449Z,99.90
2017-05-30T06:42:11.811Z,99.90
2017-05-30T06:44:40.145Z,99.90
2017-05-30T06:47:08.689Z,99.90
2017-05-30T06:49:37.025Z,99.90
2017-05-30T06:52:05.360Z,99.90
2017-05-30T06:54:34.032Z,99.90
2017-05-30T06:57:02.572Z,99.90
2017-05-30T06:59:30.896Z,99.90
2017-05-30T07:01:59.419Z,99.90
2017-05-30T07:04:27.756Z,99.90
2017-05-30T07:06:56.102Z,99.90
2017-05-30T07:09:24.516Z,99.90
2017-05-30T07:11:52.861Z,99.90
2017-05-30T07:16:56.364Z,99.90
2017-05-30T07:19:24.710Z,99.90
2017-05-30T07:21:53.055Z,99.90
2017-05-30T07:24:21.525Z,99.90
2017-05-30T07:26:49.867Z,99.90
2017-05-30T07:29:18.209Z,99.90
2017-05-30T07:31:46.776Z,99.90
2017-05-30T07:34:15.128Z,99.90
2017-05-30T07:36:43.497Z,99.90
2017-05-30T07:39:11.871Z,99.90
2017-05-30T07:41:40.251Z,99.90
2017-05-30T07:44:08.586Z,99.90
2017-05-30T07:46:37.248Z,99.90
2017-05-30T07:49:05.580Z,99.90
2017-05-30T07:51:33.921Z,99.90
2017-05-30T07:54:02.576Z,99.90
2017-05-30T07:56:30.912Z,99.90
2017-05-30T07:58:59.240Z,99.90
2017-05-30T08:01:27.815Z,99.90
2017-05-30T08:03:56.160Z,99.90
2017-05-30T08:06:24.500Z,99.90
2017-05-30T08:08:53.058Z,99.90
2017-05-30T08:11:21.410Z,99.90
2017-05-30T08:13:49.796Z,99.90
2017-05-30T08:16:18.313Z,99.90
2017-05-30T08:18:46.664Z,99.90
2017-05-30T08:21:14.999Z,99.90
2017-05-30T08:23:43.851Z,99.90
2017-05-30T08:26:12.187Z,99.90
2017-05-30T08:28:40.524Z,99.90
2017-05-30T08:31:08.928Z,99.90
2017-05-30T08:33:37.272Z,99.90
2017-05-30T08:36:06.752Z,99.90
2017-05-30T08:38:35.345Z,99.90
2017-05-30T08:41:03.684Z,99.90
2017-05-30T08:43:32.023Z,99.90
2017-05-30T08:46:00.676Z,99.90
2017-05-30T08:48:29.015Z,99.90
2017-05-30T08:50:57.364Z,99.90
2017-05-30T08:53:25.752Z,99.90
2017-05-30T08:55:54.096Z,99.90
2017-05-30T08:58:22.440Z,99.90
2017-05-30T09:00:51.776Z,99.90
2017-05-30T09:03:20.949Z,99.90
2017-05-30T09:05:49.280Z,99.90
2017-05-30T09:08:18.140Z,99.90
2017-05-30T09:10:46.480Z,99.90
2017-05-30T09:13:14.820Z,99.90
2017-05-30T09:15:42.530Z,99.90
2017-05-30T09:18:10.871Z,99.90
2017-05-30T09:20:39.205Z,99.90
2017-05-30T09:23:07.791Z,99.90
2017-05-30T09:25:36.598Z,99.90
2017-05-30T09:28:04.944Z,99.90
2017-05-30T09:30:33.455Z,99.90
2017-05-30T09:33:01.798Z,99.90
2017-05-30T09:35:30.141Z,99.90
2017-05-30T09:37:58.692Z,99.90
2017-05-30T09:40:27.029Z,99.90
2017-05-30T09:42:55.382Z,99.90
2017-05-30T09:45:23.775Z,99.60
2017-05-30T09:47:52.107Z,99.90
2017-05-30T09:50:20.475Z,99.40
2017-05-30T09:52:48.944Z,99.90
2017-05-30T09:55:17.284Z,99.30
2017-05-30T09:57:45.611Z,99.00
2017-05-30T10:00:14.304Z,98.80
2017-05-30T10:02:42.700Z,98.10
2017-05-30T10:05:11.035Z,98.30
2017-05-30T10:07:39.715Z,96.70
2017-05-30T10:10:08.063Z,97.00
2017-05-30T10:12:36.396Z,97.50
2017-05-30T10:15:04.969Z,96.90
2017-05-30T10:17:33.304Z,97.90
2017-05-30T10:20:01.807Z,96.90
2017-05-30T10:22:30.215Z,95.80
2017-05-30T10:24:58.545Z,95.60
2017-05-30T10:27:26.916Z,95.10
2017-05-30T10:29:55.281Z,94.70
2017-05-30T10:32:23.622Z,94.80
2017-05-30T10:34:51.956Z,94.80
2017-05-30T10:37:20.609Z,95.80
2017-05-30T10:39:48.941Z,94.40
2017-05-30T10:42:17.280Z,93.50
2017-05-30T10:44:45.816Z,93.30
2017-05-30T10:47:14.149Z,93.20
2017-05-30T10:49:42.487Z,92.70
2017-05-30T10:52:11.071Z,92.90
2017-05-30T10:54:39.399Z,92.50
2017-05-30T10:57:07.729Z,92.90
2017-05-30T10:59:36.288Z,92.70
2017-05-30T11:02:04.613Z,91.90
2017-05-30T11:04:32.945Z,91.50
2017-05-30T11:07:01.629Z,91.80
2017-05-30T11:09:29.960Z,91.60
2017-05-30T11:11:58.287Z,89.20
2017-05-30T11:14:26.967Z,90.20
2017-05-30T11:16:55.291Z,89.10
2017-05-30T11:19:23.635Z,90.30
2017-05-30T11:21:52.085Z,88.80
2017-05-30T11:24:20.413Z,87.60
2017-05-30T11:26:48.744Z,90.30
2017-05-30T11:29:17.222Z,90.20
2017-05-30T11:31:45.550Z,89.50
2017-05-30T11:34:13.880Z,90.00
2017-05-30T11:36:42.396Z,89.40
2017-05-30T11:39:10.724Z,88.60
2017-05-30T11:41:39.048Z,86.00
2017-05-30T11:44:07.412Z,86.40
2017-05-30T11:46:36.298Z,86.20
2017-05-30T11:49:05.775Z,84.70
2017-05-30T11:51:34.388Z,83.40
2017-05-30T11:54:02.733Z,84.10
2017-05-30T11:56:31.072Z,83.30
2017-05-30T11:58:59.743Z,82.40
2017-05-30T12:01:28.071Z,83.30
2017-05-30T12:03:56.409Z,82.00
2017-05-30T12:06:24.873Z,84.00
2017-05-30T12:08:53.195Z,85.70
2017-05-30T12:11:21.528Z,87.20
2017-05-30T12:13:50.275Z,87.80
2017-05-30T12:16:18.608Z,88.30
2017-05-30T12:18:47.488Z,90.40
2017-05-30T12:21:15.879Z,91.80
2017-05-30T12:23:44.212Z,92.60
2017-05-30T12:26:12.542Z,93.10
2017-05-30T12:28:40.938Z,93.20
2017-05-30T12:31:09.271Z,93.80
2017-05-30T12:33:37.599Z,94.00
2017-05-30T12:36:06.223Z,93.70
2017-05-30T12:38:34.553Z,92.90
2017-05-30T12:41:02.915Z,92.70
2017-05-30T12:43:32.284Z,92.10
2017-05-30T12:46:00.636Z,91.90
2017-05-30T12:48:28.963Z,92.20
2017-05-30T12:50:57.640Z,92.00
2017-05-30T12:53:25.974Z,92.50
2017-05-30T12:55:54.354Z,92.90
2017-05-30T12:58:22.955Z,93.00
2017-05-30T13:00:50.545Z,93.00
2017-05-30T13:03:19.195Z,93.30
2017-05-30T13:05:47.723Z,93.90
2017-05-30T13:08:16.679Z,94.10
2017-05-30T13:10:45.040Z,94.20
2017-05-30T13:13:13.644Z,93.50
2017-05-30T13:15:41.995Z,93.10
2017-05-30T13:18:10.335Z,93.30
2017-05-30T13:20:39.860Z,93.20
2017-05-30T13:23:07.431Z,93.20
2017-05-30T13:25:35.776Z,92.50
2017-05-30T13:28:04.516Z,92.00
2017-05-30T13:30:32.855Z,93.00
2017-05-30T13:33:01.884Z,93.90
2017-05-30T13:35:30.472Z,93.40
2017-05-30T13:37:58.811Z,92.90
2017-05-30T13:40:27.137Z,92.80
2017-05-30T13:42:55.605Z,92.30
2017-05-30T13:45:23.980Z,92.80
2017-05-30T13:47:52.308Z,93.30
2017-05-30T13:50:20.680Z,92.30
2017-05-30T13:52:49.021Z,92.20
2017-05-30T13:55:17.351Z,92.10
2017-05-30T13:57:45.984Z,91.90
2017-05-30T14:00:14.321Z,92.70
2017-05-30T14:02:41.893Z,92.70
2017-05-30T14:05:09.664Z,92.80
2017-05-30T14:07:38.018Z,92.30
2017-05-30T14:10:06.343Z,92.10
2017-05-30T14:12:34.804Z,91.90
2017-05-30T14:15:03.158Z,92.30
2017-05-30T14:17:31.504Z,93.40
2017-05-30T14:20:00.003Z,94.10
2017-05-30T14:22:28.364Z,94.60
2017-05-30T14:24:56.691Z,94.30
2017-05-30T14:27:25.300Z,94.00
2017-05-30T14:29:53.632Z,94.70
2017-05-30T14:32:21.978Z,94.80
2017-05-30T14:34:50.473Z,94.40
2017-05-30T14:37:18.874Z,94.70
2017-05-30T14:39:47.254Z,94.70
2017-05-30T14:42:15.648Z,95.00
2017-05-30T14:44:44.008Z,95.50
2017-05-30T14:47:12.380Z,95.30
2017-05-30T14:49:40.905Z,95.30
2017-05-30T14:52:09.243Z,95.60
2017-05-30T14:54:37.582Z,95.20
2017-05-30T14:57:06.034Z,95.20
2017-05-30T14:59:34.357Z,95.70
2017-05-30T15:02:02.693Z,95.90
2017-05-30T15:04:31.165Z,97.10
2017-05-30T15:06:59.488Z,99.90
2017-05-30T15:09:27.820Z,99.90
2017-05-30T15:11:56.328Z,99.90
2017-05-30T15:14:24.663Z,99.90
2017-05-30T15:16:53.025Z,99.90
2017-05-30T15:19:21.521Z,99.90
2017-05-30T15:21:49.944Z,99.90
2017-05-30T15:24:18.286Z,99.90
2017-05-30T15:26:46.775Z,99.90
2017-05-30T15:29:15.133Z,99.90
2017-05-30T15:31:43.481Z,99.90
2017-05-30T15:34:12.008Z,99.90
2017-05-30T15:36:40.360Z,99.90
2017-05-30T15:39:08.704Z,99.90
2017-05-30T15:41:37.275Z,99.90
2017-05-30T15:44:05.622Z,99.90
2017-05-30T15:46:33.970Z,99.90
2017-05-30T15:49:02.492Z,99.90
2017-05-30T15:51:30.073Z,99.90
2017-05-30T15:53:58.424Z,99.90
2017-05-30T15:56:26.960Z,99.90
2017-05-30T15:58:55.308Z,99.90
2017-05-30T16:01:23.661Z,99.90
2017-05-30T16:03:52.145Z,99.90
2017-05-30T16:06:20.490Z,99.90
2017-05-30T16:08:48.868Z,99.90
2017-05-30T16:11:17.425Z,99.90
2017-05-30T16:13:45.765Z,99.90
2017-05-30T16:16:14.928Z,99.90
2017-05-30T16:18:43.665Z,99.90
2017-05-30T16:21:12.004Z,99.90
2017-05-30T16:23:40.371Z,99.90
2017-05-30T16:26:08.857Z,99.90
2017-05-30T16:28:37.225Z,99.90
2017-05-30T16:31:05.592Z,99.90
2017-05-30T16:33:34.113Z,99.90
2017-05-30T16:36:02.456Z,99.90
2017-05-30T16:38:30.810Z,99.90
2017-05-30T16:40:59.288Z,99.90
2017-05-30T16:43:28.359Z,99.90
2017-05-30T16:45:56.726Z,99.90
2017-05-30T16:48:25.243Z,99.90
2017-05-30T16:50:53.591Z,99.90
2017-05-30T16:53:21.944Z,99.90
2017-05-30T16:55:50.454Z,99.90
2017-05-30T16:58:18.816Z,99.90
2017-05-30T17:00:47.335Z,99.90
2017-05-30T17:03:15.865Z,99.90
2017-05-30T17:05:44.208Z,99.90
2017-05-30T17:08:12.559Z,99.90
2017-05-30T17:10:41.041Z,99.90
2017-05-30T17:13:09.391Z,99.90
2017-05-30T17:15:37.744Z,99.90
2017-05-30T17:18:06.265Z,99.90
2017-05-30T17:20:34.608Z,99.90
2017-05-30T17:23:02.968Z,99.90
2017-05-30T17:25:30.584Z,99.90
2017-05-30T17:27:58.930Z,99.80
2017-05-30T17:30:27.284Z,99.90
2017-05-30T17:32:55.772Z,99.90
2017-05-30T17:35:24.143Z,99.90
2017-05-30T17:37:52.494Z,99.90
2017-05-30T17:40:21.063Z,99.60
2017-05-30T17:42:49.756Z,99.80
2017-05-30T17:45:18.124Z,99.90
2017-05-30T17:47:46.523Z,99.70
2017-05-30T17:50:14.882Z,99.90
2017-05-30T17:52:43.248Z,99.90
2017-05-30T17:55:11.787Z,99.90
2017-05-30T17:57:40.152Z,99.90
2017-05-30T18:00:08.513Z,99.50
2017-05-30T18:02:36.913Z,99.60
2017-05-30T18:05:05.263Z,99.40
2017-05-30T18:07:33.609Z,99.40
2017-05-30T18:10:02.024Z,99.20
2017-05-30T18:12:29.619Z,99.30
2017-05-30T18:14:57.988Z,99.00
2017-05-30T18:17:26.408Z,99.00
2017-05-30T18:19:54.857Z,98.80
2017-05-30T18:22:23.340Z,98.90
2017-05-30T18:24:51.714Z,98.50
2017-05-30T18:27:20.073Z,98.70
2017-05-30T18:29:48.458Z,99.00
2017-05-30T18:32:17.242Z,99.00
2017-05-30T18:34:45.605Z,98.80
2017-05-30T18:37:13.986Z,98.70
2017-05-30T18:39:42.390Z,98.70
2017-05-30T18:42:10.775Z,98.90
2017-05-30T18:44:39.126Z,99.40
2017-05-30T18:47:07.530Z,99.30
2017-05-30T18:49:35.880Z,99.20
2017-05-30T18:52:04.242Z,99.00
2017-05-30T18:54:32.665Z,99.10
2017-05-30T18:57:01.008Z,98.90
2017-05-30T18:59:28.666Z,99.00
2017-05-30T19:01:57.065Z,99.20
2017-05-30T19:04:25.502Z,99.60
2017-05-30T19:06:53.847Z,99.70
2017-05-30T19:09:22.313Z,99.80
2017-05-30T19:11:50.659Z,99.50
2017-05-30T19:14:18.250Z,99.50
2017-05-30T19:16:46.655Z,99.90
2017-05-30T19:19:15.056Z,99.90
2017-05-30T19:21:43.596Z,99.90
2017-05-30T19:24:14.516Z,99.90
2017-05-30T19:26:47.582Z,99.90
2017-05-30T19:29:15.411Z,99.90
2017-05-30T19:31:47.629Z,99.90
2017-05-30T19:34:18.289Z,99.90
2017-05-30T19:36:47.504Z,99.90
2017-05-30T19:39:15.089Z,99.90
2017-05-30T19:41:43.482Z,99.90
2017-05-30T19:44:11.825Z,99.90
2017-05-30T19:46:40.162Z,99.90
2017-05-30T19:49:07.806Z,99.90
2017-05-30T19:51:36.150Z,99.90
2017-05-30T19:54:04.511Z,99.90
2017-05-30T19:56:33.003Z,99.90
2017-05-30T19:59:01.364Z,99.90
2017-05-30T20:01:29.870Z,99.90
2017-05-30T20:03:58.512Z,99.90
2017-05-30T20:06:26.856Z,99.90
2017-05-30T20:08:55.220Z,99.90
2017-05-30T20:11:23.695Z,99.90
2017-05-30T20:13:52.054Z,99.90
2017-05-30T20:16:20.441Z,99.90
2017-05-30T20:18:49.791Z,99.90
2017-05-30T20:21:18.146Z,99.90
2017-05-30T20:23:45.728Z,99.90
2017-05-30T20:26:14.416Z,99.90
2017-05-30T20:28:42.856Z,99.90
2017-05-30T20:31:11.227Z,99.90
2017-05-30T20:33:39.808Z,99.90
2017-05-30T20:36:08.148Z,99.90
2017-05-30T20:38:36.524Z,99.90
2017-05-30T20:41:05.298Z,99.90
2017-05-30T20:43:33.752Z,99.90
2017-05-30T20:46:02.109Z,99.90
2017-05-30T20:48:30.505Z,99.90
2017-05-30T20:50:58.865Z,99.90
2017-05-30T20:53:27.225Z,99.90
2017-05-30T20:55:55.755Z,99.90
2017-05-30T20:58:24.094Z,99.90
2017-05-30T21:00:52.453Z,99.90
2017-05-30T21:03:20.835Z,99.90
2017-05-30T21:05:49.190Z,99.90
2017-05-30T21:08:17.545Z,99.90
2017-05-30T21:10:46.065Z,99.90
2017-05-30T21:13:13.647Z,99.90
2017-05-30T21:15:41.999Z,99.90
2017-05-30T21:18:10.522Z,99.90
2017-05-30T21:20:38.868Z,99.90
2017-05-30T21:23:10.382Z,99.90
2017-05-30T21:25:38.732Z,99.90
2017-05-30T21:28:07.065Z,99.90
2017-05-30T21:30:34.681Z,99.90
2017-05-30T21:33:02.272Z,99.90
2017-05-30T21:35:29.839Z,99.90
2017-05-30T21:37:58.352Z,99.90
2017-05-30T21:40:26.745Z,99.90
2017-05-30T21:42:55.074Z,99.90
2017-05-30T21:45:25.617Z,99.90
2017-05-30T21:47:53.973Z,99.90
2017-05-30T21:50:22.331Z,99.90
2017-05-30T21:52:50.835Z,99.90
2017-05-30T21:55:19.958Z,99.90
2017-05-30T21:57:48.299Z,99.90
2017-05-30T22:00:16.664Z,99.90
2017-05-30T22:02:45.048Z,99.90
2017-05-30T22:05:13.403Z,99.90
2017-05-30T22:07:41.963Z,99.90
2017-05-30T22:10:10.308Z,99.90
2017-05-30T22:12:38.675Z,99.90
2017-05-30T22:15:07.040Z,99.90
2017-05-30T22:17:36.205Z,99.90
2017-05-30T22:20:04.572Z,99.90
2017-05-30T22:22:32.949Z,99.90
2017-05-30T22:25:01.290Z,99.90
2017-05-30T22:27:30.482Z,99.90
2017-05-30T22:29:59.285Z,99.90
2017-05-30T22:32:28.299Z,99.90
2017-05-30T22:34:59.231Z,99.90
2017-05-30T22:37:28.884Z,99.90
2017-05-30T22:39:56.495Z,99.90
2017-05-30T22:42:24.835Z,99.90
2017-05-30T22:44:53.359Z,99.90
2017-05-30T22:47:21.709Z,99.90
2017-05-30T22:49:49.501Z,99.90
2017-05-30T22:52:17.317Z,99.90
2017-05-30T22:54:45.663Z,99.90
2017-05-30T22:57:14.967Z,99.90
2017-05-30T22:59:43.547Z,99.90
2017-05-30T23:02:12.028Z,99.90
2017-05-30T23:04:40.370Z,99.90
2017-05-30T23:07:09.076Z,99.90
2017-05-30T23:09:37.516Z,99.90
2017-05-30T23:12:05.862Z,99.90
2017-05-30T23:14:34.429Z,99.90
2017-05-30T23:17:02.838Z,99.90
2017-05-30T23:19:31.244Z,99.90
2017-05-30T23:21:59.775Z,99.90
2017-05-30T23:24:28.126Z,99.90
2017-05-30T23:26:56.493Z,99.90
2017-05-30T23:29:25.384Z,99.90
2017-05-30T23:31:53.787Z,99.90
2017-05-30T23:34:22.149Z,99.90
2017-05-30T23:36:50.681Z,99.90
2017-05-30T23:39:19.020Z,99.90
2017-05-30T23:41:47.355Z,99.90
2017-05-30T23:44:15.887Z,99.90
2017-05-30T23:46:44.233Z,99.90
2017-05-30T23:49:12.568Z,99.90
2017-05-30T23:51:40.960Z,99.90
2017-05-30T23:54:09.303Z,99.90
2017-05-30T23:56:37.639Z,99.90
2017-05-30T23:59:05.404Z,99.90
